createdAt,value
2019-05-02T00:00:20.002Z,1001.95
2019-05-02T00:01:20.010Z,1001.97
2019-05-02T00:02:23.985Z,1001.90
2019-05-02T00:03:21.027Z,1001.93
2019-05-02T00:04:21.263Z,1001.93
2019-05-02T00:05:19.934Z,1001.88
2019-05-02T00:06:19.960Z,1001.91
2019-05-02T00:07:21.793Z,1001.89
2019-05-02T00:08:19.909Z,1001.90
2019-05-02T00:09:19.949Z,1001.88
2019-05-02T00:10:24.488Z,1001.81
2019-05-02T00:11:20.881Z,1001.84
2019-05-02T00:12:19.861Z,1001.89
2019-05-02T00:13:19.853Z,1001.84
2019-05-02T00:14:19.887Z,1001.88
2019-05-02T00:15:19.840Z,1001.82
2019-05-02T00:16:19.815Z,1001.79
2019-05-02T00:17:20.164Z,1001.80
2019-05-02T00:18:20.790Z,1001.81
2019-05-02T00:19:19.808Z,1001.80
2019-05-02T00:20:21.185Z,1001.81
2019-05-02T00:21:20.761Z,1001.79
2019-05-02T00:22:19.756Z,1001.73
2019-05-02T00:23:22.958Z,1001.80
2019-05-02T00:24:20.763Z,1001.75
2019-05-02T00:25:19.709Z,1001.73
2019-05-02T00:26:24.645Z,1001.73
2019-05-02T00:27:20.721Z,1001.73
2019-05-02T00:28:19.683Z,1001.66
2019-05-02T00:29:23.688Z,1001.75
2019-05-02T00:30:20.656Z,1001.68
2019-05-02T00:31:19.665Z,1001.60
2019-05-02T00:32:22.566Z,1001.72
2019-05-02T00:33:19.630Z,1001.72
2019-05-02T00:34:19.638Z,1001.75
2019-05-02T00:35:19.627Z,1001.67
2019-05-02T00:36:19.641Z,1001.67
2019-05-02T00:37:24.502Z,1001.73
2019-05-02T00:38:20.579Z,1001.67
2019-05-02T00:39:19.589Z,1001.68
2019-05-02T00:40:20.140Z,1001.70
2019-05-02T00:41:20.534Z,1001.69
2019-05-02T00:42:22.529Z,1001.72
2019-05-02T00:43:19.512Z,1001.62
2019-05-02T00:44:19.519Z,1001.70
2019-05-02T00:45:23.979Z,1001.63
2019-05-02T00:46:20.474Z,1001.63
2019-05-02T00:47:19.487Z,1001.67
2019-05-02T00:48:23.091Z,1001.67
2019-05-02T00:49:19.449Z,1001.62
2019-05-02T00:50:19.457Z,1001.66
2019-05-02T00:51:21.945Z,1001.63
2019-05-02T00:52:20.408Z,1001.57
2019-05-02T00:53:19.399Z,1001.60
2019-05-02T00:54:24.238Z,1001.59
2019-05-02T00:55:20.395Z,1001.56
2019-05-02T00:56:19.373Z,1001.62
2019-05-02T00:57:20.010Z,1001.59
2019-05-02T00:58:19.350Z,1001.56
2019-05-02T00:59:19.339Z,1001.59
2019-05-02T01:00:19.851Z,1001.52
2019-05-02T01:01:19.336Z,1001.48
2019-05-02T01:02:19.302Z,1001.49
2019-05-02T01:03:19.288Z,1001.58
2019-05-02T01:04:23.245Z,1001.49
2019-05-02T01:05:20.271Z,1001.54
2019-05-02T01:06:19.278Z,1001.52
2019-05-02T01:07:20.371Z,1001.53
2019-05-02T01:08:20.242Z,1001.48
2019-05-02T01:09:19.226Z,1001.48
2019-05-02T01:10:21.243Z,1001.47
2019-05-02T01:11:19.227Z,1001.47
2019-05-02T01:12:26.251Z,1001.48
2019-05-02T01:13:20.409Z,1001.42
2019-05-02T01:14:19.175Z,1001.41
2019-05-02T01:15:19.160Z,1001.41
2019-05-02T01:16:20.327Z,1001.44
2019-05-02T01:17:19.142Z,1001.44
2019-05-02T01:18:19.121Z,1001.42
2019-05-02T01:19:19.130Z,1001.40
2019-05-02T01:20:22.135Z,1001.40
2019-05-02T01:21:20.114Z,1001.36
2019-05-02T01:22:19.076Z,1001.37
2019-05-02T01:23:23.062Z,1001.34
2019-05-02T01:24:19.060Z,1001.31
2019-05-02T01:25:19.056Z,1001.34
2019-05-02T01:26:19.036Z,1001.33
2019-05-02T01:27:19.046Z,1001.41
2019-05-02T01:28:19.013Z,1001.34
2019-05-02T01:29:19.001Z,1001.38
2019-05-02T01:30:18.992Z,1001.33
2019-05-02T01:31:20.276Z,1001.31
2019-05-02T01:32:18.987Z,1001.26
2019-05-02T01:33:18.961Z,1001.30
2019-05-02T01:34:19.378Z,1001.23
2019-05-02T01:35:18.936Z,1001.27
2019-05-02T01:36:18.933Z,1001.29
2019-05-02T01:37:21.111Z,1001.27
2019-05-02T01:38:18.910Z,1001.26
2019-05-02T01:39:18.900Z,1001.26
2019-05-02T01:40:19.011Z,1001.19
2019-05-02T01:41:18.870Z,1001.28
2019-05-02T01:42:18.863Z,1001.31
2019-05-02T01:43:19.807Z,1001.29
2019-05-02T01:44:18.842Z,1001.26
2019-05-02T01:45:18.821Z,1001.21
2019-05-02T01:46:22.319Z,1001.19
2019-05-02T01:47:19.844Z,1001.19
2019-05-02T01:48:18.798Z,1001.19
2019-05-02T01:49:21.736Z,1001.19
2019-05-02T01:50:18.764Z,1001.19
2019-05-02T01:51:18.762Z,1001.12
2019-05-02T01:52:19.075Z,1001.19
2019-05-02T01:53:18.757Z,1001.18
2019-05-02T01:54:18.734Z,1001.13
2019-05-02T01:55:21.271Z,1001.11
2019-05-02T01:56:18.702Z,1001.10
2019-05-02T01:57:18.713Z,1001.15
2019-05-02T01:58:20.863Z,1001.14
2019-05-02T01:59:18.664Z,1001.05
2019-05-02T02:00:18.662Z,1001.06
2019-05-02T02:01:21.518Z,1001.06
2019-05-02T02:02:18.642Z,1000.99
2019-05-02T02:03:18.638Z,1001.06
2019-05-02T02:04:21.058Z,1001.01
2019-05-02T02:05:18.608Z,1001.06
2019-05-02T02:06:18.596Z,1000.98
2019-05-02T02:07:20.015Z,1001.03
2019-05-02T02:08:18.699Z,1001.06
2019-05-02T02:09:18.566Z,1000.97
2019-05-02T02:10:19.840Z,1000.98
2019-05-02T02:11:18.536Z,1000.93
2019-05-02T02:12:18.533Z,1000.97
2019-05-02T02:13:18.548Z,1000.95
2019-05-02T02:14:18.979Z,1000.92
2019-05-02T02:15:18.506Z,1000.92
2019-05-02T02:16:18.493Z,1000.94
2019-05-02T02:17:18.477Z,1000.88
2019-05-02T02:18:22.107Z,1000.90
2019-05-02T02:19:19.478Z,1000.87
2019-05-02T02:20:18.441Z,1000.87
2019-05-02T02:21:20.117Z,1000.88
2019-05-02T02:22:19.433Z,1000.81
2019-05-02T02:23:18.407Z,1000.82
2019-05-02T02:24:21.122Z,1000.86
2019-05-02T02:25:19.386Z,1000.86
2019-05-02T02:26:18.368Z,1000.82
2019-05-02T02:27:20.022Z,1000.93
2019-05-02T02:28:19.359Z,1000.75
2019-05-02T02:29:18.343Z,1000.84
2019-05-02T02:30:24.658Z,1000.85
2019-05-02T02:31:19.323Z,1000.82
2019-05-02T02:32:20.291Z,1000.80
2019-05-02T02:33:19.291Z,1000.89
2019-05-02T02:34:21.219Z,1000.85
2019-05-02T02:35:19.297Z,1000.84
2019-05-02T02:36:30.372Z,1000.89
2019-05-02T02:37:19.252Z,1000.81
2019-05-02T02:38:18.240Z,1000.87
2019-05-02T02:39:18.225Z,1000.83
2019-05-02T02:40:18.231Z,1000.77
2019-05-02T02:41:18.205Z,1000.87
2019-05-02T02:42:18.191Z,1000.82
2019-05-02T02:43:33.566Z,1000.81
2019-05-02T02:44:19.169Z,1000.83
2019-05-02T02:45:19.007Z,1000.80
2019-05-02T02:46:18.165Z,1000.78
2019-05-02T02:47:19.404Z,1000.79
2019-05-02T02:48:18.126Z,1000.81
2019-05-02T02:49:21.475Z,1000.82
2019-05-02T02:50:19.119Z,1000.84
2019-05-02T02:51:24.094Z,1000.78
2019-05-02T02:52:19.074Z,1000.83
2019-05-02T02:53:23.907Z,1000.81
2019-05-02T02:54:19.060Z,1000.80
2019-05-02T02:55:22.109Z,1000.83
2019-05-02T02:56:19.060Z,1000.78
2019-05-02T02:57:25.835Z,1000.76
2019-05-02T02:58:19.009Z,1000.85
2019-05-02T02:59:19.665Z,1000.84
2019-05-02T03:00:18.988Z,1000.83
2019-05-02T03:01:27.511Z,1000.88
2019-05-02T03:02:18.970Z,1000.77
2019-05-02T03:03:20.698Z,1000.80
2019-05-02T03:04:18.945Z,1000.80
2019-05-02T03:05:18.687Z,1000.78
2019-05-02T03:06:18.942Z,1000.75
2019-05-02T03:07:25.315Z,1000.71
2019-05-02T03:08:18.895Z,1000.73
2019-05-02T03:09:20.090Z,1000.68
2019-05-02T03:10:18.874Z,1000.65
2019-05-02T03:11:23.472Z,1000.68
2019-05-02T03:12:18.875Z,1000.68
2019-05-02T03:13:21.931Z,1000.72
2019-05-02T03:14:18.834Z,1000.69
2019-05-02T03:15:21.008Z,1000.65
2019-05-02T03:16:18.809Z,1000.60
2019-05-02T03:17:20.606Z,1000.69
2019-05-02T03:18:18.791Z,1000.63
2019-05-02T03:19:21.350Z,1000.70
2019-05-02T03:20:18.765Z,1000.65
2019-05-02T03:21:20.240Z,1000.68
2019-05-02T03:22:17.758Z,1000.62
2019-05-02T03:23:21.783Z,1000.69
2019-05-02T03:24:18.730Z,1000.61
2019-05-02T03:25:24.495Z,1000.61
2019-05-02T03:26:18.701Z,1000.63
2019-05-02T03:27:17.710Z,1000.57
2019-05-02T03:28:20.307Z,1000.59
2019-05-02T03:29:17.660Z,1000.60
2019-05-02T03:30:32.356Z,1000.58
2019-05-02T03:31:24.795Z,1000.61
2019-05-02T03:32:31.651Z,1000.60
2019-05-02T03:33:18.637Z,1000.62
2019-05-02T03:34:17.607Z,1000.69
2019-05-02T03:35:19.016Z,1000.62
2019-05-02T03:36:29.685Z,1000.57
2019-05-02T03:37:18.603Z,1000.61
2019-05-02T03:38:17.562Z,1000.57
2019-05-02T03:39:17.674Z,1000.60
2019-05-02T03:40:17.549Z,1000.57
2019-05-02T03:41:20.945Z,1000.55
2019-05-02T03:42:18.556Z,1000.60
2019-05-02T03:43:18.971Z,1000.55
2019-05-02T03:44:25.609Z,1000.55
2019-05-02T03:45:18.482Z,1000.51
2019-05-02T03:46:20.680Z,1000.54
2019-05-02T03:47:18.496Z,1000.56
2019-05-02T03:48:18.083Z,1000.60
2019-05-02T03:49:18.438Z,1000.54
2019-05-02T03:50:17.428Z,1000.53
2019-05-02T03:51:21.479Z,1000.56
2019-05-02T03:52:18.425Z,1000.52
2019-05-02T03:53:24.782Z,1000.51
2019-05-02T03:54:20.177Z,1000.50
2019-05-02T03:55:17.365Z,1000.52
2019-05-02T03:56:17.359Z,1000.49
2019-05-02T03:57:17.363Z,1000.42
2019-05-02T03:58:17.570Z,1000.49
2019-05-02T03:59:17.336Z,1000.45
2019-05-02T04:00:20.876Z,1000.48
2019-05-02T04:01:18.315Z,1000.44
2019-05-02T04:02:20.523Z,1000.45
2019-05-02T04:03:17.307Z,1000.44
2019-05-02T04:04:20.554Z,1000.48
2019-05-02T04:05:17.260Z,1000.46
2019-05-02T04:06:21.025Z,1000.46
2019-05-02T04:07:18.240Z,1000.50
2019-05-02T04:08:20.944Z,1000.50
2019-05-02T04:09:18.226Z,1000.44
2019-05-02T04:10:20.035Z,1000.43
2019-05-02T04:11:17.196Z,1000.46
2019-05-02T04:12:21.229Z,1000.47
2019-05-02T04:13:17.193Z,1000.44
2019-05-02T04:14:36.600Z,1000.43
2019-05-02T04:15:18.151Z,1000.49
2019-05-02T04:16:17.596Z,1000.44
2019-05-02T04:17:17.129Z,1000.47
2019-05-02T04:18:17.957Z,1000.53
2019-05-02T04:19:17.106Z,1000.49
2019-05-02T04:20:17.104Z,1000.51
2019-05-02T04:21:24.267Z,1000.47
2019-05-02T04:22:18.078Z,1000.50
2019-05-02T04:23:21.324Z,1000.60
2019-05-02T04:24:18.073Z,1000.53
2019-05-02T04:25:17.047Z,1000.55
2019-05-02T04:26:17.029Z,1000.53
2019-05-02T04:27:17.027Z,1000.58
2019-05-02T04:28:17.041Z,1000.50
2019-05-02T04:29:17.006Z,1000.54
2019-05-02T04:30:16.985Z,1000.62
2019-05-02T04:31:16.978Z,1000.62
2019-05-02T04:32:16.967Z,1000.54
2019-05-02T04:33:17.108Z,1000.52
2019-05-02T04:34:17.843Z,1000.59
2019-05-02T04:35:16.948Z,1000.59
2019-05-02T04:36:17.812Z,1000.55
2019-05-02T04:37:16.935Z,1000.55
2019-05-02T04:38:21.414Z,1000.57
2019-05-02T04:39:21.493Z,1000.56
2019-05-02T04:40:18.208Z,1000.53
2019-05-02T04:41:18.848Z,1000.59
2019-05-02T04:42:22.128Z,1000.54
2019-05-02T04:43:18.440Z,1000.51
2019-05-02T04:44:18.931Z,1000.57
2019-05-02T04:45:26.423Z,1000.56
2019-05-02T04:46:25.850Z,1000.57
2019-05-02T04:47:21.797Z,1000.62
2019-05-02T04:48:18.408Z,1000.60
2019-05-02T04:49:19.993Z,1000.61
2019-05-02T04:50:24.340Z,1000.62
2019-05-02T04:51:20.294Z,1000.57
2019-05-02T04:52:18.276Z,1000.60
2019-05-02T04:53:18.888Z,1000.56
2019-05-02T04:54:25.714Z,1000.61
2019-05-02T04:55:25.929Z,1000.55
2019-05-02T04:56:18.611Z,1000.67
2019-05-02T04:57:18.648Z,1000.60
2019-05-02T04:58:24.246Z,1000.51
2019-05-02T04:59:22.530Z,1000.58
2019-05-02T05:00:18.422Z,1000.51
2019-05-02T05:01:16.649Z,1000.56
2019-05-02T05:02:23.020Z,1000.55
2019-05-02T05:03:20.977Z,1000.54
2019-05-02T05:04:17.926Z,1000.50
2019-05-02T05:05:25.038Z,1000.47
2019-05-02T05:06:18.852Z,1000.48
2019-05-02T05:07:17.755Z,1000.53
2019-05-02T05:08:25.762Z,1000.52
2019-05-02T05:09:18.060Z,1000.47
2019-05-02T05:10:18.552Z,1000.58
2019-05-02T05:11:21.296Z,1000.53
2019-05-02T05:12:19.294Z,1000.48
2019-05-02T05:13:21.566Z,1000.49
2019-05-02T05:14:17.984Z,1000.49
2019-05-02T05:15:33.930Z,1000.51
2019-05-02T05:16:18.609Z,1000.52
2019-05-02T05:17:19.749Z,1000.45
2019-05-02T05:18:17.692Z,1000.50
2019-05-02T05:19:17.850Z,1000.52
2019-05-02T05:20:18.315Z,1000.51
2019-05-02T05:21:17.896Z,1000.46
2019-05-02T05:22:18.471Z,1000.50
2019-05-02T05:23:21.325Z,1000.49
2019-05-02T05:24:18.185Z,1000.47
2019-05-02T05:25:17.673Z,1000.48
2019-05-02T05:26:17.530Z,1000.53
2019-05-02T05:27:21.159Z,1000.50
2019-05-02T05:28:19.787Z,1000.47
2019-05-02T05:29:21.292Z,1000.48
2019-05-02T05:30:18.668Z,1000.54
2019-05-02T05:31:23.683Z,1000.50
2019-05-02T05:32:17.928Z,1000.55
2019-05-02T05:33:18.327Z,1000.57
2019-05-02T05:34:17.344Z,1000.58
2019-05-02T05:35:17.771Z,1000.52
2019-05-02T05:36:19.813Z,1000.63
2019-05-02T05:37:17.242Z,1000.62
2019-05-02T05:38:18.192Z,1000.54
2019-05-02T05:39:17.644Z,1000.63
2019-05-02T05:40:17.705Z,1000.57
2019-05-02T05:41:20.172Z,1000.67
2019-05-02T05:42:17.866Z,1000.61
2019-05-02T05:43:20.294Z,1000.67
2019-05-02T05:44:18.040Z,1000.66
2019-05-02T05:45:17.388Z,1000.63
2019-05-02T05:46:17.831Z,1000.69
2019-05-02T05:47:18.912Z,1000.67
2019-05-02T05:48:18.395Z,1000.70
2019-05-02T05:49:20.230Z,1000.67
2019-05-02T05:50:17.662Z,1000.62
2019-05-02T05:51:20.409Z,1000.67
2019-05-02T05:52:17.976Z,1000.70
2019-05-02T05:53:17.234Z,1000.60
2019-05-02T05:54:17.851Z,1000.61
2019-05-02T05:55:20.527Z,1000.52
2019-05-02T05:56:18.012Z,1000.62
2019-05-02T05:57:17.465Z,1000.53
2019-05-02T05:58:18.618Z,1000.58
2019-05-02T05:59:17.529Z,1000.49
2019-05-02T06:00:22.687Z,1000.57
2019-05-02T06:01:20.033Z,1000.55
2019-05-02T06:02:18.185Z,1000.59
2019-05-02T06:03:17.738Z,1000.53
2019-05-02T06:04:22.106Z,1000.52
2019-05-02T06:05:17.458Z,1000.49
2019-05-02T06:06:22.363Z,1000.52
2019-05-02T06:07:17.608Z,1000.43
2019-05-02T06:08:18.328Z,1000.46
2019-05-02T06:09:15.896Z,1000.50
2019-05-02T06:10:15.911Z,1000.44
2019-05-02T06:11:19.950Z,1000.45
2019-05-02T06:12:16.864Z,1000.50
2019-05-02T06:13:15.873Z,1000.36
2019-05-02T06:14:20.034Z,1000.46
2019-05-02T06:15:16.839Z,1000.53
2019-05-02T06:16:16.661Z,1000.52
2019-05-02T06:17:15.801Z,1000.41
2019-05-02T06:18:15.816Z,1000.40
2019-05-02T06:19:17.969Z,1000.35
2019-05-02T06:20:15.823Z,1000.40
2019-05-02T06:21:17.136Z,1000.39
2019-05-02T06:22:16.557Z,1000.33
2019-05-02T06:23:16.734Z,1000.35
2019-05-02T06:24:15.975Z,1000.36
2019-05-02T06:25:15.731Z,1000.36
2019-05-02T06:26:15.981Z,1000.39
2019-05-02T06:27:15.690Z,1000.37
2019-05-02T06:28:15.674Z,1000.38
2019-05-02T06:29:18.647Z,1000.30
2019-05-02T06:30:15.681Z,1000.25
2019-05-02T06:31:17.177Z,1000.33
2019-05-02T06:32:19.379Z,1000.36
2019-05-02T06:33:15.618Z,1000.33
2019-05-02T06:34:15.615Z,1000.27
2019-05-02T06:35:17.141Z,1000.28
2019-05-02T06:36:16.605Z,1000.24
2019-05-02T06:37:15.594Z,1000.23
2019-05-02T06:38:15.597Z,1000.27
2019-05-02T06:39:15.554Z,1000.25
2019-05-02T06:40:15.543Z,1000.21
2019-05-02T06:41:16.111Z,1000.22
2019-05-02T06:42:16.532Z,1000.22
2019-05-02T06:43:15.521Z,1000.22
2019-05-02T06:44:18.586Z,1000.22
2019-05-02T06:45:16.537Z,1000.22
2019-05-02T06:46:16.790Z,1000.26
2019-05-02T06:47:16.472Z,1000.22
2019-05-02T06:48:17.740Z,1000.23
2019-05-02T06:49:15.466Z,1000.17
2019-05-02T06:50:15.425Z,1000.25
2019-05-02T06:51:19.541Z,1000.22
2019-05-02T06:52:16.415Z,1000.25
2019-05-02T06:53:15.395Z,1000.22
2019-05-02T06:54:18.032Z,1000.23
2019-05-02T06:55:16.371Z,1000.29
2019-05-02T06:56:15.403Z,1000.24
2019-05-02T06:57:18.993Z,1000.22
2019-05-02T06:58:16.344Z,1000.25
2019-05-02T06:59:18.469Z,1000.28
2019-05-02T07:00:15.339Z,1000.33
2019-05-02T07:01:16.195Z,1000.24
2019-05-02T07:02:16.318Z,1000.25
2019-05-02T07:03:15.302Z,1000.23
2019-05-02T07:04:17.496Z,1000.29
2019-05-02T07:05:16.264Z,1000.24
2019-05-02T07:06:15.276Z,1000.17
2019-05-02T07:07:15.360Z,1000.15
2019-05-02T07:08:15.252Z,1000.20
2019-05-02T07:09:15.381Z,1000.22
2019-05-02T07:10:15.207Z,1000.20
2019-05-02T07:11:15.237Z,1000.20
2019-05-02T07:12:16.662Z,1000.30
2019-05-02T07:13:15.521Z,1000.29
2019-05-02T07:14:18.536Z,1000.29
2019-05-02T07:15:16.165Z,1000.31
2019-05-02T07:16:19.825Z,1000.32
2019-05-02T07:17:16.132Z,1000.30
2019-05-02T07:18:15.156Z,1000.31
2019-05-02T07:19:16.583Z,1000.28
2019-05-02T07:20:15.103Z,1000.29
2019-05-02T07:21:17.307Z,1000.32
2019-05-02T07:22:15.082Z,1000.27
2019-05-02T07:23:16.398Z,1000.35
2019-05-02T07:24:15.051Z,1000.28
2019-05-02T07:25:15.047Z,1000.32
2019-05-02T07:26:15.578Z,1000.31
2019-05-02T07:27:16.016Z,1000.38
2019-05-02T07:28:15.051Z,1000.30
2019-05-02T07:29:17.131Z,1000.34
2019-05-02T07:30:15.997Z,1000.32
2019-05-02T07:31:14.978Z,1000.33
2019-05-02T07:32:19.357Z,1000.37
2019-05-02T07:33:16.160Z,1000.31
2019-05-02T07:34:14.954Z,1000.35
2019-05-02T07:35:19.354Z,1000.31
2019-05-02T07:36:15.919Z,1000.31
2019-05-02T07:37:14.915Z,1000.35
2019-05-02T07:38:14.911Z,1000.33
2019-05-02T07:39:14.910Z,1000.37
2019-05-02T07:40:16.839Z,1000.34
2019-05-02T07:41:14.905Z,1000.36
2019-05-02T07:42:14.862Z,1000.30
2019-05-02T07:43:21.097Z,1000.35
2019-05-02T07:44:15.862Z,1000.36
2019-05-02T07:45:14.860Z,1000.31
2019-05-02T07:46:16.161Z,1000.30
2019-05-02T07:47:15.793Z,1000.29
2019-05-02T07:48:17.860Z,1000.34
2019-05-02T07:49:14.794Z,1000.40
2019-05-02T07:50:14.771Z,1000.37
2019-05-02T07:51:17.239Z,1000.44
2019-05-02T07:52:15.734Z,1000.42
2019-05-02T07:53:14.751Z,1000.32
2019-05-02T07:54:14.746Z,1000.35
2019-05-02T07:55:14.712Z,1000.39
2019-05-02T07:56:17.613Z,1000.34
2019-05-02T07:57:14.695Z,1000.29
2019-05-02T07:58:14.707Z,1000.34
2019-05-02T07:59:18.563Z,1000.32
2019-05-02T08:00:14.652Z,1000.32
2019-05-02T08:01:15.327Z,1000.26
2019-05-02T08:02:14.635Z,1000.33
2019-05-02T08:03:14.615Z,1000.27
2019-05-02T08:04:14.609Z,1000.28
2019-05-02T08:05:15.667Z,1000.30
2019-05-02T08:06:15.587Z,1000.25
2019-05-02T08:07:16.226Z,1000.27
2019-05-02T08:08:15.560Z,1000.27
2019-05-02T08:09:14.552Z,1000.27
2019-05-02T08:10:16.282Z,1000.28
2019-05-02T08:11:15.722Z,1000.34
2019-05-02T08:12:14.507Z,1000.24
2019-05-02T08:13:17.574Z,1000.26
2019-05-02T08:14:14.505Z,1000.23
2019-05-02T08:15:15.280Z,1000.20
2019-05-02T08:16:14.468Z,1000.29
2019-05-02T08:17:17.478Z,1000.23
2019-05-02T08:18:14.543Z,1000.21
2019-05-02T08:19:14.467Z,1000.20
2019-05-02T08:20:19.000Z,1000.26
2019-05-02T08:21:15.415Z,1000.15
2019-05-02T08:22:14.964Z,1000.18
2019-05-02T08:23:14.415Z,1000.16
2019-05-02T08:24:14.410Z,1000.19
2019-05-02T08:25:14.398Z,1000.15
2019-05-02T08:26:16.439Z,1000.18
2019-05-02T08:27:15.371Z,1000.20
2019-05-02T08:28:15.751Z,1000.29
2019-05-02T08:29:14.316Z,1000.19
2019-05-02T08:30:14.348Z,1000.14
2019-05-02T08:31:19.160Z,1000.16
2019-05-02T08:32:15.313Z,1000.26
2019-05-02T08:33:14.349Z,1000.24
2019-05-02T08:34:15.887Z,1000.18
2019-05-02T08:35:14.268Z,1000.20
2019-05-02T08:36:14.271Z,1000.17
2019-05-02T08:37:14.264Z,1000.20
2019-05-02T08:38:17.868Z,1000.20
2019-05-02T08:39:14.585Z,1000.28
2019-05-02T08:40:14.227Z,1000.18
2019-05-02T08:41:14.223Z,1000.30
2019-05-02T08:42:14.186Z,1000.19
2019-05-02T08:43:14.181Z,1000.22
2019-05-02T08:44:16.762Z,1000.26
2019-05-02T08:45:14.168Z,1000.23
2019-05-02T08:46:15.692Z,1000.31
2019-05-02T08:47:19.115Z,1000.21
2019-05-02T08:48:15.120Z,1000.19
2019-05-02T08:49:18.397Z,1000.20
2019-05-02T08:50:14.119Z,1000.18
2019-05-02T08:51:14.094Z,1000.24
2019-05-02T08:52:14.108Z,1000.17
2019-05-02T08:53:19.121Z,1000.15
2019-05-02T08:54:15.042Z,1000.18
2019-05-02T08:55:14.034Z,1000.18
2019-05-02T08:56:16.521Z,1000.14
2019-05-02T08:57:15.035Z,1000.15
2019-05-02T08:58:14.676Z,1000.17
2019-05-02T08:59:14.021Z,1000.16
2019-05-02T09:00:13.976Z,1000.16
2019-05-02T09:01:15.525Z,1000.20
2019-05-02T09:02:14.047Z,1000.14
2019-05-02T09:03:13.950Z,1000.17
2019-05-02T09:04:13.967Z,1000.14
2019-05-02T09:05:13.918Z,1000.10
2019-05-02T09:06:17.247Z,1000.20
2019-05-02T09:07:15.069Z,1000.15
2019-05-02T09:08:16.270Z,1000.20
2019-05-02T09:09:14.044Z,1000.18
2019-05-02T09:10:13.865Z,1000.18
2019-05-02T09:11:15.655Z,1000.10
2019-05-02T09:12:15.192Z,1000.12
2019-05-02T09:13:18.080Z,1000.11
2019-05-02T09:14:14.840Z,1000.17
2019-05-02T09:15:13.867Z,1000.15
2019-05-02T09:16:13.937Z,1000.11
2019-05-02T09:17:16.526Z,1000.12
2019-05-02T09:18:13.844Z,1000.18
2019-05-02T09:19:21.186Z,1000.19
2019-05-02T09:20:18.676Z,1000.23
2019-05-02T09:21:14.742Z,1000.12
2019-05-02T09:22:16.789Z,1000.17
2019-05-02T09:23:13.745Z,1000.19
2019-05-02T09:24:21.010Z,1000.23
2019-05-02T09:25:14.725Z,1000.20
2019-05-02T09:26:13.703Z,1000.23
2019-05-02T09:27:13.687Z,1000.28
2019-05-02T09:28:17.169Z,1000.20
2019-05-02T09:29:14.644Z,1000.22
2019-05-02T09:30:17.261Z,1000.23
2019-05-02T09:31:14.648Z,1000.20
2019-05-02T09:32:17.050Z,1000.16
2019-05-02T09:33:14.646Z,1000.14
2019-05-02T09:34:17.128Z,1000.16
2019-05-02T09:35:14.601Z,1000.25
2019-05-02T09:36:13.570Z,1000.16
2019-05-02T09:37:13.626Z,1000.16
2019-05-02T09:38:16.235Z,1000.17
2019-05-02T09:39:13.546Z,1000.12
2019-05-02T09:40:16.706Z,1000.13
2019-05-02T09:41:18.991Z,1000.16
2019-05-02T09:42:16.356Z,1000.16
2019-05-02T09:43:13.529Z,1000.12
2019-05-02T09:44:18.480Z,1000.16
2019-05-02T09:45:16.175Z,1000.14
2019-05-02T09:46:16.621Z,1000.13
2019-05-02T09:47:13.529Z,1000.13
2019-05-02T09:48:17.305Z,1000.11
2019-05-02T09:49:16.547Z,1000.16
2019-05-02T09:50:13.413Z,1000.14
2019-05-02T09:51:17.417Z,1000.01
2019-05-02T09:52:13.378Z,1000.05
2019-05-02T09:53:20.858Z,1000.02
2019-05-02T09:54:14.402Z,999.96
2019-05-02T09:55:13.382Z,1000.11
2019-05-02T09:56:13.347Z,1000.06
2019-05-02T09:57:13.338Z,999.98
2019-05-02T09:58:19.923Z,999.95
2019-05-02T09:59:26.699Z,1000.01
2019-05-02T10:00:14.298Z,999.98
2019-05-02T10:01:13.280Z,1000.02
2019-05-02T10:02:13.288Z,999.98
2019-05-02T10:03:13.320Z,999.98
2019-05-02T10:04:13.266Z,999.94
2019-05-02T10:05:13.279Z,999.89
2019-05-02T10:06:18.077Z,999.92
2019-05-02T10:07:15.477Z,999.97
2019-05-02T10:08:13.927Z,999.96
2019-05-02T10:09:13.270Z,999.96
2019-05-02T10:10:13.212Z,999.96
2019-05-02T10:11:16.995Z,999.93
2019-05-02T10:12:14.170Z,999.96
2019-05-02T10:13:13.192Z,999.89
2019-05-02T10:14:13.179Z,999.91
2019-05-02T10:15:13.149Z,999.90
2019-05-02T10:16:13.130Z,999.93
2019-05-02T10:17:13.143Z,999.91
2019-05-02T10:18:14.587Z,999.92
2019-05-02T10:19:13.641Z,999.88
2019-05-02T10:20:13.085Z,999.93
2019-05-02T10:21:17.053Z,999.87
2019-05-02T10:22:13.048Z,999.88
2019-05-02T10:23:19.535Z,999.91
2019-05-02T10:24:14.074Z,999.93
2019-05-02T10:25:13.011Z,999.97
2019-05-02T10:26:19.899Z,999.96
2019-05-02T10:27:13.994Z,999.88
2019-05-02T10:28:13.105Z,999.83
2019-05-02T10:29:13.040Z,999.92
2019-05-02T10:30:15.576Z,999.89
2019-05-02T10:31:12.974Z,999.93
2019-05-02T10:32:16.536Z,999.88
2019-05-02T10:33:12.928Z,999.89
2019-05-02T10:34:16.167Z,999.86
2019-05-02T10:35:13.032Z,999.90
2019-05-02T10:36:19.531Z,999.93
2019-05-02T10:37:13.902Z,999.92
2019-05-02T10:38:17.609Z,999.84
2019-05-02T10:39:15.825Z,999.85
2019-05-02T10:40:17.017Z,999.88
2019-05-02T10:41:12.839Z,999.90
2019-05-02T10:42:12.828Z,999.90
2019-05-02T10:43:12.818Z,999.88
2019-05-02T10:44:12.980Z,999.85
2019-05-02T10:45:16.582Z,999.81
2019-05-02T10:46:12.786Z,999.94
2019-05-02T10:47:12.898Z,999.84
2019-05-02T10:48:25.257Z,999.88
2019-05-02T10:49:13.769Z,999.88
2019-05-02T10:50:12.764Z,999.85
2019-05-02T10:51:12.753Z,999.86
2019-05-02T10:52:12.730Z,999.88
2019-05-02T10:53:15.685Z,999.90
2019-05-02T10:54:12.693Z,999.89
2019-05-02T10:55:12.934Z,999.85
2019-05-02T10:56:12.696Z,1000.01
2019-05-02T10:57:12.776Z,999.91
2019-05-02T10:58:12.655Z,999.89
2019-05-02T10:59:12.976Z,999.85
2019-05-02T11:00:12.657Z,999.88
2019-05-02T11:01:12.758Z,999.87
2019-05-02T11:02:12.925Z,999.88
2019-05-02T11:03:12.605Z,999.79
2019-05-02T11:04:12.981Z,999.84
2019-05-02T11:05:16.920Z,999.84
2019-05-02T11:06:13.607Z,999.84
2019-05-02T11:07:17.142Z,999.81
2019-05-02T11:08:13.533Z,999.83
2019-05-02T11:09:16.742Z,999.80
2019-05-02T11:10:13.512Z,999.83
2019-05-02T11:11:12.749Z,999.86
2019-05-02T11:12:16.378Z,999.89
2019-05-02T11:13:13.510Z,999.87
2019-05-02T11:14:12.478Z,999.79
2019-05-02T11:15:12.748Z,999.87
2019-05-02T11:16:12.619Z,999.84
2019-05-02T11:17:14.009Z,999.87
2019-05-02T11:18:13.419Z,999.78
2019-05-02T11:19:13.106Z,999.92
2019-05-02T11:20:12.475Z,999.89
2019-05-02T11:21:12.410Z,999.86
2019-05-02T11:22:12.397Z,999.80
2019-05-02T11:23:12.820Z,999.76
2019-05-02T11:24:14.360Z,999.92
2019-05-02T11:25:12.393Z,999.87
2019-05-02T11:26:14.527Z,999.86
2019-05-02T11:27:13.329Z,999.90
2019-05-02T11:28:12.541Z,999.90
2019-05-02T11:29:12.305Z,999.83
2019-05-02T11:30:16.486Z,999.92
2019-05-02T11:31:12.511Z,999.73
2019-05-02T11:32:12.771Z,999.86
2019-05-02T11:33:13.387Z,999.75
2019-05-02T11:34:12.489Z,999.82
2019-05-02T11:35:12.304Z,999.83
2019-05-02T11:36:13.746Z,999.83
2019-05-02T11:37:12.294Z,999.77
2019-05-02T11:38:36.978Z,999.82
2019-05-02T11:39:19.767Z,999.86
2019-05-02T11:40:13.185Z,999.92
2019-05-02T11:41:12.196Z,999.86
2019-05-02T11:42:12.528Z,999.88
2019-05-02T11:43:12.145Z,999.91
2019-05-02T11:44:12.345Z,999.85
2019-05-02T11:45:12.250Z,999.94
2019-05-02T11:46:12.199Z,999.86
2019-05-02T11:47:12.622Z,999.86
2019-05-02T11:48:14.008Z,999.82
2019-05-02T11:49:12.309Z,999.83
2019-05-02T11:50:12.069Z,999.85
2019-05-02T11:51:16.317Z,999.85
2019-05-02T11:52:12.055Z,999.82
2019-05-02T11:53:24.689Z,999.82
2019-05-02T11:54:13.182Z,999.82
2019-05-02T11:55:12.923Z,999.79
2019-05-02T11:56:13.509Z,999.84
2019-05-02T11:57:11.987Z,999.78
2019-05-02T11:58:12.588Z,999.72
2019-05-02T11:59:14.774Z,999.76
2019-05-02T12:00:12.507Z,999.77
2019-05-02T12:01:12.536Z,999.75
2019-05-02T12:02:17.399Z,999.72
2019-05-02T12:03:12.917Z,999.77
2019-05-02T12:04:16.606Z,999.64
2019-05-02T12:05:12.929Z,999.73
2019-05-02T12:06:16.161Z,999.78
2019-05-02T12:07:12.882Z,999.75
2019-05-02T12:08:12.307Z,999.78
2019-05-02T12:09:13.288Z,999.74